Time;durP1;ratioP1;P1;durP2;ratioP2;P2;SDS_P1;SDS_P2;PMS_P1;PMS_P2;Temp;Humidity;BMP_temperature;BMP_pressure;BME280_temperature;BME280_humidity;BME280_pressure;Samples;Min_cycle;Max_cycle;Signal;HPM_P1;HPM_P2
2022/01/18 00:00:15;;;;;;;;;75.25;61.00;;;;;1.89;85.21;103353.41;4999669;28;45564;-80
2022/01/18 00:02:40;;;;;;;;;76.00;61.50;;;;;1.85;86.39;103365.75;4999856;28;45307;-80
2022/01/18 00:05:12;;;;;;;;;72.50;58.75;;;;;1.82;86.00;103365.84;4999516;28;45505;-80
2022/01/18 00:07:38;;;;;;;;;77.00;61.00;;;;;1.83;85.56;103351.00;4981595;28;47316;-80
2022/01/18 00:10:04;;;;;;;;;77.25;62.75;;;;;1.84;84.97;103350.06;4981561;28;45307;-80
2022/01/18 00:12:55;;;;;;;;;72.25;58.25;;;;;1.88;85.93;103370.91;5002527;28;45215;-81
2022/01/18 00:23:13;;;;;;;;;71.75;57.75;;;;;1.77;85.45;103368.63;5003059;28;45338;-80
2022/01/18 00:25:42;;;;;;;;;71.75;57.75;;;;;1.72;85.36;103348.72;5002321;28;45393;-81
2022/01/18 00:28:08;;;;;;;;;71.25;55.50;;;;;1.73;85.15;103361.78;5002923;28;45313;-81
2022/01/18 00:33:18;;;;;;;;;69.25;55.75;;;;;1.76;85.36;103366.94;5002883;28;45294;-80
2022/01/18 00:35:45;;;;;;;;;71.75;57.25;;;;;1.77;85.86;103368.63;4984882;28;46344;-81
2022/01/18 00:41:05;;;;;;;;;73.25;57.25;;;;;1.67;85.23;103355.91;4982934;28;45536;-81
2022/01/18 00:43:30;;;;;;;;;66.75;56.25;;;;;1.66;85.82;103367.28;5002888;28;45210;-80
2022/01/18 00:45:56;;;;;;;;;66.50;52.00;;;;;1.62;86.21;103354.25;5002508;28;45175;-81
2022/01/18 00:48:21;;;;;;;;;63.00;52.25;;;;;1.70;85.75;103363.63;5002548;28;45285;-81
2022/01/18 00:50:49;;;;;;;;;60.00;48.75;;;;;1.69;86.98;103367.19;5002640;28;45221;-81
2022/01/18 00:53:16;;;;;;;;;60.00;48.25;;;;;1.61;87.07;103342.06;5002734;28;45347;-80
2022/01/18 00:56:04;;;;;;;;;57.25;48.75;;;;;1.73;86.99;103345.19;5002079;28;45563;-80
2022/01/18 00:58:29;;;;;;;;;56.50;47.50;;;;;1.80;87.46;103351.97;5002564;28;45563;-81
2022/01/18 01:00:55;;;;;;;;;45.50;40.25;;;;;1.96;87.74;103351.41;5002286;28;45273;-80
2022/01/18 01:03:20;;;;;;;;;51.75;44.25;;;;;1.95;87.58;103332.19;5002541;28;45216;-81
2022/01/18 01:05:46;;;;;;;;;58.00;47.25;;;;;2.07;87.78;103349.31;4984488;28;46126;-81
2022/01/18 01:08:11;;;;;;;;;54.75;44.75;;;;;2.21;87.38;103361.91;5002042;28;46131;-80
2022/01/18 01:10:37;;;;;;;;;57.25;43.00;;;;;2.14;87.64;103326.31;5002134;28;45256;-81
2022/01/18 01:13:03;;;;;;;;;51.25;44.75;;;;;2.37;87.17;103361.38;5002349;28;45458;-80
2022/01/18 01:15:34;;;;;;;;;47.25;42.25;;;;;2.34;88.06;103349.19;4984515;28;46033;-81
2022/01/18 01:18:32;;;;;;;;;55.50;44.25;;;;;2.50;87.51;103359.16;4983980;28;47244;-81
2022/01/18 01:34:50;;;;;;;;;48.25;42.25;;;;;2.73;87.66;103331.19;5001949;28;45344;-81
2022/01/18 01:45:34;;;;;;;;;44.25;38.00;;;;;3.15;87.31;103363.75;5001580;28;45442;-80
2022/01/18 01:48:00;;;;;;;;;40.75;39.00;;;;;3.21;87.22;103346.88;5001526;28;45460;-80
2022/01/18 01:50:29;;;;;;;;;51.75;42.75;;;;;3.26;87.72;103366.78;4983771;28;48365;-80
2022/01/18 01:52:56;;;;;;;;;54.00;43.25;;;;;3.31;87.09;103369.25;5001497;28;45293;-80
2022/01/18 01:55:23;;;;;;;;;43.00;38.75;;;;;3.22;87.67;103344.19;4983539;28;45255;-80
2022/01/18 01:57:49;;;;;;;;;42.50;37.25;;;;;3.24;87.24;103337.09;5001305;28;45283;-81
2022/01/18 02:00:19;;;;;;;;;49.25;42.75;;;;;3.37;86.90;103369.00;4983558;28;46786;-80
2022/01/18 02:02:45;;;;;;;;;45.50;38.75;;;;;3.35;87.39;103347.16;5001435;28;45290;-80
2022/01/18 02:05:11;;;;;;;;;44.00;39.25;;;;;3.41;87.93;103349.53;4983655;28;45336;-80
2022/01/18 02:07:37;;;;;;;;;38.25;35.25;;;;;3.45;87.10;103357.31;5001202;28;45255;-80
2022/01/18 02:10:10;;;;;;;;;40.00;37.75;;;;;3.47;87.83;103345.81;5001041;28;45224;-80
2022/01/18 02:12:39;;;;;;;;;41.00;38.00;;;;;3.50;87.32;103344.84;5001173;28;45173;-80
2022/01/18 02:15:24;;;;;;;;;40.25;36.00;;;;;3.41;87.48;103322.38;4983649;28;45319;-80
2022/01/18 02:23:24;;;;;;;;;38.00;35.75;;;;;3.61;87.24;103340.00;5001030;28;45339;-80
2022/01/18 02:25:50;;;;;;;;;28.50;25.50;;;;;3.57;87.31;103320.00;5000825;28;45227;-80
2022/01/18 02:28:17;;;;;;;;;39.50;34.50;;;;;3.69;86.73;103333.53;4983461;28;46074;-80
2022/01/18 02:30:44;;;;;;;;;39.00;35.75;;;;;3.65;87.39;103310.00;4983042;28;47361;-80
2022/01/18 02:33:10;;;;;;;;;41.25;35.50;;;;;3.73;86.79;103317.56;5000806;28;45378;-80
2022/01/18 02:35:35;;;;;;;;;41.25;37.75;;;;;3.80;86.83;103339.19;5000503;28;45263;-81
2022/01/18 02:38:02;;;;;;;;;36.00;30.25;;;;;3.79;86.97;103325.22;5000790;28;45344;-80
2022/01/18 02:40:27;;;;;;;;;41.00;34.75;;;;;3.73;86.86;103307.03;5000538;28;45320;-80
2022/01/18 02:43:01;;;;;;;;;40.00;35.75;;;;;3.87;86.90;103324.88;5000893;28;45228;-81
2022/01/18 02:45:27;;;;;;;;;45.75;38.25;;;;;3.83;86.46;103311.91;5001039;28;45270;-81
2022/01/18 02:47:52;;;;;;;;;42.25;35.75;;;;;3.90;87.02;103318.63;5000663;28;46521;-81
2022/01/18 02:50:19;;;;;;;;;41.50;35.25;;;;;3.86;86.45;103317.88;4982797;28;47359;-80
2022/01/18 02:52:44;;;;;;;;;45.50;35.50;;;;;3.78;86.39;103304.22;4982981;28;45251;-81
2022/01/18 02:55:10;;;;;;;;;38.75;36.25;;;;;3.79;86.39;103288.38;5000392;28;45242;-80
2022/01/18 02:57:53;;;;;;;;;43.75;38.00;;;;;3.87;86.82;103305.59;4982787;28;47297;-80
2022/01/18 03:00:31;;;;;;;;;35.50;35.00;;;;;3.84;86.89;103296.06;5000560;28;46565;-80
2022/01/18 03:03:12;;;;;;;;;33.50;33.50;;;;;3.97;86.49;103304.28;4982672;28;45278;-81
2022/01/18 03:05:38;;;;;;;;;35.25;33.75;;;;;3.90;86.13;103293.16;5000590;28;45321;-80
2022/01/18 03:08:03;;;;;;;;;32.00;28.75;;;;;3.95;86.27;103305.28;5000135;28;45348;-80
2022/01/18 03:10:29;;;;;;;;;29.25;28.75;;;;;4.02;86.18;103304.06;4982207;28;47168;-80
2022/01/18 03:12:54;;;;;;;;;28.75;25.25;;;;;3.98;86.71;103286.72;5000459;28;45262;-80
2022/01/18 03:15:20;;;;;;;;;32.75;29.75;;;;;3.93;86.67;103292.19;4982676;28;45423;-81
2022/01/18 03:17:45;;;;;;;;;34.50;31.25;;;;;3.96;86.47;103293.81;5000045;28;45425;-81
2022/01/18 03:20:13;;;;;;;;;35.50;32.50;;;;;3.91;86.24;103265.94;5000355;28;45208;-80
2022/01/18 03:22:39;;;;;;;;;34.75;33.25;;;;;3.90;86.15;103269.47;5000168;28;45389;-80
2022/01/18 03:25:25;;;;;;;;;35.50;32.00;;;;;4.00;86.07;103287.50;4999784;28;45318;-81
2022/01/18 03:28:05;;;;;;;;;29.00;26.00;;;;;3.96;86.17;103281.53;5000117;28;45317;-80
2022/01/18 03:30:41;;;;;;;;;28.50;26.00;;;;;3.86;86.07;103265.25;4999676;28;46195;-80
2022/01/18 03:33:16;;;;;;;;;28.25;25.25;;;;;3.79;86.16;103262.06;5000022;28;45176;-81
2022/01/18 03:35:42;;;;;;;;;33.75;27.75;;;;;3.88;86.63;103273.97;4999998;28;45318;-80
2022/01/18 03:38:09;;;;;;;;;30.00;25.75;;;;;3.78;86.28;103252.44;4999987;28;45264;-81
2022/01/18 03:40:34;;;;;;;;;36.25;29.75;;;;;3.86;87.23;103257.38;4999551;28;46295;-80
2022/01/18 03:43:01;;;;;;;;;30.25;29.00;;;;;3.89;86.64;103270.41;4982158;28;46265;-80
2022/01/18 03:45:31;;;;;;;;;24.25;21.50;;;;;3.83;86.68;103272.47;4981491;28;45361;-80
2022/01/18 03:48:01;;;;;;;;;27.75;27.75;;;;;3.95;86.70;103284.22;4999790;28;45437;-80
2022/01/18 03:50:26;;;;;;;;;35.50;28.50;;;;;3.91;86.95;103279.09;4999715;28;45346;-80
2022/01/18 03:52:53;;;;;;;;;18.25;16.00;;;;;3.92;87.29;103280.78;4999687;28;45333;-80
2022/01/18 03:55:20;;;;;;;;;23.25;21.00;;;;;3.90;86.62;103285.25;4999677;28;45252;-80
2022/01/18 03:57:46;;;;;;;;;33.25;29.75;;;;;3.95;86.79;103284.22;4999600;28;45281;-81
2022/01/18 04:00:18;;;;;;;;;28.75;26.75;;;;;3.95;87.11;103284.22;4999536;28;45306;-81
2022/01/18 04:02:44;;;;;;;;;27.25;25.00;;;;;3.92;87.13;103280.78;4999631;28;45285;-81
2022/01/18 04:05:11;;;;;;;;;26.25;20.25;;;;;3.99;86.96;103286.66;4981744;28;45280;-80
2022/01/18 04:07:37;;;;;;;;;34.00;28.00;;;;;3.89;86.58;103277.47;4999540;28;45167;-80
2022/01/18 04:10:05;;;;;;;;;28.00;23.75;;;;;3.86;87.09;103269.69;4981290;28;47154;-80
2022/01/18 04:12:30;;;;;;;;;27.50;24.75;;;;;3.86;87.04;103267.06;4999641;28;45389;-81
2022/01/18 04:14:55;;;;;;;;;27.25;24.25;;;;;3.90;86.86;103277.34;4999594;28;45281;-81
2022/01/18 04:28:25;;;;;;;;;18.50;17.50;;;;;3.94;86.37;103269.31;4999136;28;45311;-80
2022/01/18 04:30:50;;;;;;;;;20.50;19.00;;;;;3.95;86.30;103263.16;4981399;28;47299;-80
2022/01/18 04:33:16;;;;;;;;;30.75;26.75;;;;;3.97;86.63;103272.69;4999199;28;45292;-80
2022/01/18 04:35:41;;;;;;;;;27.50;26.00;;;;;3.96;86.87;103275.38;4999401;28;45254;-81
2022/01/18 04:38:06;;;;;;;;;30.50;24.75;;;;;3.83;86.66;103267.19;4999229;28;45566;-80
2022/01/18 04:40:33;;;;;;;;;25.00;21.00;;;;;3.88;86.25;103276.59;4998961;28;46139;-80
2022/01/18 04:43:13;;;;;;;;;22.25;21.00;;;;;3.83;86.26;103272.47;4999291;28;45312;-81
2022/01/18 04:50:50;;;;;;;;;27.00;22.25;;;;;3.75;86.17;103270.16;4999057;28;45220;-80
2022/01/18 04:53:16;;;;;;;;;28.75;25.25;;;;;3.78;86.52;103278.75;4981405;28;45932;-80
2022/01/18 04:55:41;;;;;;;;;28.00;25.25;;;;;3.73;86.24;103270.22;4981095;28;45238;-80
2022/01/18 04:58:07;;;;;;;;;24.50;22.00;;;;;3.66;85.70;103255.63;4983465;28;46899;-80
2022/01/18 05:00:32;;;;;;;;;28.50;27.00;;;;;3.65;86.11;103249.50;5002122;28;46287;-80
2022/01/18 05:02:57;;;;;;;;;25.50;25.00;;;;;3.59;85.49;103252.38;5003886;28;45201;-80
2022/01/18 05:05:25;;;;;;;;;27.00;21.75;;;;;3.71;85.74;103284.38;5002421;28;45343;-80
2022/01/18 05:07:58;;;;;;;;;28.00;22.75;;;;;3.56;86.47;103256.94;4999283;28;45852;-80
2022/01/18 05:10:27;;;;;;;;;26.50;21.00;;;;;3.52;86.63;103271.97;4999023;28;45479;-81
2022/01/18 05:12:54;;;;;;;;;24.00;22.25;;;;;3.56;86.61;103275.34;5017204;28;45380;-80
2022/01/18 05:18:57;;;;;;;;;22.75;22.75;;;;;3.54;86.63;103275.41;5001695;28;45743;-81
2022/01/18 05:23:38;;;;;;;;;25.25;23.00;;;;;3.54;86.66;103281.50;5001736;28;45357;-80
2022/01/18 05:26:04;;;;;;;;;25.50;24.00;;;;;3.46;86.53;103259.09;5001342;28;45330;-79
2022/01/18 05:28:30;;;;;;;;;25.50;22.25;;;;;3.61;86.26;103281.25;4984130;28;46280;-80
2022/01/18 05:30:55;;;;;;;;;27.25;26.00;;;;;3.56;86.47;103270.94;4984145;28;47053;-79
2022/01/18 05:33:22;;;;;;;;;34.00;28.50;;;;;3.53;85.83;103281.56;5002224;28;45349;-79
2022/01/18 05:35:48;;;;;;;;;32.50;26.50;;;;;3.49;86.12;103285.25;5002027;28;45448;-78
2022/01/18 05:38:13;;;;;;;;;35.25;31.50;;;;;3.40;86.79;103266.34;5001911;28;45311;-78
2022/01/18 05:40:39;;;;;;;;;32.00;31.00;;;;;3.47;86.28;103263.47;5017052;28;48234;-80
2022/01/18 05:43:05;;;;;;;;;33.25;26.00;;;;;3.50;86.27;103276.47;5003647;28;45247;-78
2022/01/18 05:45:31;;;;;;;;;35.00;32.00;;;;;3.45;86.17;103266.16;5003699;28;45230;-79
2022/01/18 05:47:56;;;;;;;;;29.00;28.00;;;;;3.51;86.52;103273.75;5000924;28;45894;-79
2022/01/18 05:50:22;;;;;;;;;31.50;27.25;;;;;3.48;86.45;103250.25;5002326;28;45258;-80
2022/01/18 05:52:47;;;;;;;;;27.25;24.00;;;;;3.59;86.47;103272.59;5002086;28;45281;-80
2022/01/18 05:55:13;;;;;;;;;28.75;24.75;;;;;3.62;86.45;103273.31;5001698;28;45412;-80
2022/01/18 05:57:38;;;;;;;;;29.00;25.00;;;;;3.62;86.78;103264.56;5001707;28;45362;-80
2022/01/18 06:00:11;;;;;;;;;27.50;27.00;;;;;3.43;86.52;103239.06;5001461;28;46187;-80
2022/01/18 06:02:48;;;;;;;;;25.75;24.50;;;;;3.65;86.95;103273.16;5000285;28;45683;-81
2022/01/18 06:07:58;;;;;;;;;32.75;30.25;;;;;3.59;86.53;103251.56;4997620;28;45341;-80
2022/01/18 06:10:24;;;;;;;;;34.00;29.25;;;;;3.59;86.14;103257.66;5014578;28;45387;-80
2022/01/18 06:12:50;;;;;;;;;32.50;25.50;;;;;3.53;86.55;103256.13;5004633;28;45309;-82
2022/01/18 06:15:16;;;;;;;;;42.00;37.50;;;;;3.48;86.52;103250.25;5023187;28;45327;-80
2022/01/18 06:17:41;;;;;;;;;30.75;26.50;;;;;3.48;86.33;103260.75;4998594;28;45897;-81
2022/01/18 06:20:08;;;;;;;;;34.25;30.25;;;;;3.50;85.76;103272.06;5000604;28;45301;-80
2022/01/18 06:22:33;;;;;;;;;28.25;24.75;;;;;3.45;86.28;103267.91;4983619;28;45276;-79
2022/01/18 06:24:59;;;;;;;;;28.50;27.50;;;;;3.41;85.79;103265.41;5001060;28;45284;-80
2022/01/18 06:27:24;;;;;;;;;27.50;24.25;;;;;3.43;86.59;103262.72;4983265;28;45531;-79
2022/01/18 06:29:50;;;;;;;;;26.00;24.50;;;;;3.46;86.19;103261.72;5000788;28;45486;-80
2022/01/18 06:32:15;;;;;;;;;35.25;30.75;;;;;3.50;85.74;103273.84;4998642;28;45225;-80
2022/01/18 06:34:40;;;;;;;;;27.50;25.25;;;;;3.33;85.87;103254.38;4999507;28;45212;-81
2022/01/18 06:37:07;;;;;;;;;32.50;26.50;;;;;3.28;86.84;103248.44;5000867;28;45203;-80
2022/01/18 06:39:32;;;;;;;;;34.75;32.75;;;;;3.43;86.96;103267.97;5000637;28;46092;-81
2022/01/18 06:41:58;;;;;;;;;39.75;35.00;;;;;3.40;86.60;103262.84;5000998;28;45482;-80
2022/01/18 06:44:24;;;;;;;;;17.25;15.00;;;;;3.43;86.53;103262.72;5001188;28;45325;-80
2022/01/18 06:46:50;;;;;;;;;40.50;36.75;;;;;3.48;86.22;103273.91;4983110;28;46986;-80
2022/01/18 06:49:15;;;;;;;;;41.75;35.75;;;;;3.43;86.68;103259.22;4982912;28;47388;-80
2022/01/18 06:51:40;;;;;;;;;42.50;37.50;;;;;3.42;86.28;103255.75;5000303;28;45370;-81
2022/01/18 06:54:12;;;;;;;;;43.50;35.50;;;;;3.38;86.79;103265.53;5000497;28;45330;-81
2022/01/18 06:56:39;;;;;;;;;40.00;33.75;;;;;3.41;86.42;103273.28;5000556;28;45318;-80
2022/01/18 06:59:04;;;;;;;;;40.00;35.50;;;;;3.39;86.00;103275.13;5000481;28;46355;-80
2022/01/18 07:01:29;;;;;;;;;39.25;35.75;;;;;3.38;85.85;103273.41;4999207;28;45416;-80
2022/01/18 07:03:55;;;;;;;;;34.25;33.75;;;;;3.33;86.34;103278.03;5000780;28;45336;-80
2022/01/18 07:06:20;;;;;;;;;32.75;31.00;;;;;3.32;86.38;103271.03;5000644;28;45246;-80
2022/01/18 07:08:45;;;;;;;;;36.75;36.00;;;;;3.32;86.27;103260.53;4982507;28;48726;-81
2022/01/18 07:11:11;;;;;;;;;50.75;41.00;;;;;3.40;86.71;103274.22;5000319;28;45302;-80
2022/01/18 07:13:36;;;;;;;;;41.00;37.75;;;;;3.36;86.69;103264.75;5000612;28;45780;-80
2022/01/18 07:16:02;;;;;;;;;49.25;40.25;;;;;3.31;86.64;103253.56;5000254;28;45317;-80
2022/01/18 07:18:27;;;;;;;;;55.25;44.00;;;;;3.40;86.34;103268.09;5015509;28;47993;-80
2022/01/18 07:20:53;;;;;;;;;49.75;41.00;;;;;3.39;86.71;103264.59;5000149;28;45343;-81
2022/01/18 07:23:19;;;;;;;;;46.25;40.00;;;;;3.38;86.92;103262.91;5000604;28;45272;-81
2022/01/18 07:25:47;;;;;;;;;45.00;39.50;;;;;3.50;86.81;103279.94;5000043;28;45222;-81
2022/01/18 07:28:14;;;;;;;;;45.75;39.00;;;;;3.55;86.76;103282.38;4982383;28;47278;-80
2022/01/18 07:30:40;;;;;;;;;41.75;39.25;;;;;3.40;86.57;103250.56;4999918;28;45290;-80
2022/01/18 07:33:06;;;;;;;;;41.50;36.50;;;;;3.64;86.68;103282.00;5000213;28;45329;-81
2022/01/18 07:35:34;;;;;;;;;41.00;37.00;;;;;3.69;87.63;103288.81;5000119;28;45333;-80
2022/01/18 07:38:02;;;;;;;;;37.00;33.25;;;;;3.72;87.44;103292.19;4999958;28;46375;-80
2022/01/18 07:40:29;;;;;;;;;42.75;36.00;;;;;3.77;87.18;103284.94;4998401;28;45557;-80
2022/01/18 07:42:55;;;;;;;;;48.75;39.50;;;;;3.73;86.91;103270.22;5000135;28;45260;-80
2022/01/18 07:45:21;;;;;;;;;36.75;34.75;;;;;3.83;87.18;103275.91;4999889;28;45232;-80
2022/01/18 07:47:47;;;;;;;;;43.50;38.00;;;;;3.89;87.28;103275.66;4999971;28;45394;-80
2022/01/18 07:50:13;;;;;;;;;41.50;37.50;;;;;3.90;86.95;103274.72;4999795;28;45236;-80
2022/01/18 07:52:38;;;;;;;;;31.50;29.25;;;;;3.99;87.53;103289.28;5000221;28;45211;-80
2022/01/18 07:55:05;;;;;;;;;38.00;30.75;;;;;4.07;87.68;103290.72;4999495;28;45235;-80
2022/01/18 07:57:30;;;;;;;;;33.00;30.50;;;;;4.09;87.25;103289.72;4999811;28;47563;-80
2022/01/18 07:59:56;;;;;;;;;33.25;32.25;;;;;4.05;87.85;103264.47;4999726;28;45264;-81
2022/01/18 08:02:21;;;;;;;;;33.25;31.00;;;;;4.22;87.71;103278.66;4998556;28;45293;-81
2022/01/18 08:04:47;;;;;;;;;35.25;30.25;;;;;4.27;87.77;103279.28;4998502;28;47205;-81
2022/01/18 08:07:12;;;;;;;;;32.00;29.50;;;;;4.35;87.57;103279.78;4999644;28;45275;-80
2022/01/18 08:09:37;;;;;;;;;30.75;30.25;;;;;4.43;88.06;103274.16;4999381;28;45253;-80
2022/01/18 08:12:04;;;;;;;;;31.50;29.25;;;;;4.45;88.18;103261.78;4999950;28;45345;-81
2022/01/18 08:14:31;;;;;;;;;40.25;33.00;;;;;4.54;88.27;103271.91;4999555;28;45421;-80
2022/01/18 08:17:00;;;;;;;;;36.75;35.00;;;;;4.63;87.94;103270.59;4997984;28;47376;-80
2022/01/18 08:19:33;;;;;;;;;34.25;29.25;;;;;4.70;88.24;103265.03;4982460;28;46271;-81
2022/01/18 08:21:59;;;;;;;;;35.00;30.25;;;;;4.80;88.01;103274.22;4999613;28;45227;-80
2022/01/18 08:24:25;;;;;;;;;35.50;28.50;;;;;4.75;88.17;103253.34;4999106;28;45506;-80
2022/01/18 08:26:51;;;;;;;;;39.00;34.50;;;;;4.80;87.92;103245.22;4999205;28;46256;-80
2022/01/18 08:29:17;;;;;;;;;49.75;37.75;;;;;4.97;87.86;103265.47;4999298;28;45236;-80
2022/01/18 08:31:42;;;;;;;;;34.25;28.50;;;;;5.05;87.83;103271.25;4982096;28;45256;-81
2022/01/18 08:34:08;;;;;;;;;32.75;26.75;;;;;5.11;87.86;103271.84;5002952;28;45227;-80
2022/01/18 08:36:34;;;;;;;;;33.50;32.50;;;;;5.06;87.76;103243.13;5002777;28;45340;-80
2022/01/18 08:39:00;;;;;;;;;41.75;37.25;;;;;5.16;87.63;103265.44;4984643;28;46190;-80
2022/01/18 08:41:26;;;;;;;;;54.25;41.75;;;;;5.21;87.54;103253.81;5003030;28;45368;-80
2022/01/18 08:43:53;;;;;;;;;37.75;30.50;;;;;5.17;87.46;103253.09;4984959;28;45492;-81
2022/01/18 08:46:19;;;;;;;;;28.75;26.25;;;;;5.21;87.55;103244.09;5002571;28;45978;-80
2022/01/18 08:48:45;;;;;;;;;51.50;41.00;;;;;5.30;87.90;103267.38;5002607;28;45172;-80
2022/01/18 08:51:10;;;;;;;;;50.50;38.75;;;;;5.34;87.87;103257.56;5002690;28;45158;-80
2022/01/18 08:53:37;;;;;;;;;60.75;48.25;;;;;5.36;87.48;103250.41;4984781;28;45943;-80
2022/01/18 08:56:03;;;;;;;;;61.75;50.00;;;;;5.42;87.44;103258.00;5002063;28;45355;-80
2022/01/18 08:58:28;;;;;;;;;64.75;51.25;;;;;5.36;87.30;103254.84;4984720;28;45353;-80
2022/01/18 09:00:54;;;;;;;;;62.75;50.25;;;;;5.45;87.55;103261.41;4984907;28;45270;-80
2022/01/18 09:03:19;;;;;;;;;62.25;50.50;;;;;5.44;87.55;103244.72;5002411;28;45322;-81
2022/01/18 09:05:45;;;;;;;;;45.75;37.75;;;;;5.59;87.59;103260.72;5002243;28;46106;-80
2022/01/18 09:08:13;;;;;;;;;44.50;36.75;;;;;5.58;87.69;103259.88;5002068;28;45326;-80
2022/01/18 09:10:40;;;;;;;;;31.75;31.50;;;;;5.63;87.32;103252.56;5002216;28;45321;-80
2022/01/18 09:13:06;;;;;;;;;38.75;34.75;;;;;5.66;87.47;103238.38;5002339;28;45226;-80
2022/01/18 09:15:31;;;;;;;;;45.00;37.25;;;;;5.66;87.31;103244.47;5002073;28;46022;-80
2022/01/18 09:17:57;;;;;;;;;53.25;42.75;;;;;5.70;87.22;103255.75;4984057;28;45231;-81
2022/01/18 09:20:24;;;;;;;;;57.25;44.25;;;;;5.74;87.37;103253.78;5002397;28;45526;-80
2022/01/18 09:22:52;;;;;;;;;72.50;56.00;;;;;5.80;87.69;103250.81;5002216;28;45331;-81
2022/01/18 09:25:23;;;;;;;;;64.75;51.75;;;;;5.85;87.90;103245.31;5001562;28;45342;-80
2022/01/18 09:27:50;;;;;;;;;35.75;32.00;;;;;6.02;87.27;103262.91;5002010;28;45346;-80
2022/01/18 09:30:15;;;;;;;;;41.75;35.50;;;;;6.06;87.44;103254.75;4984364;28;45349;-80
2022/01/18 09:32:46;;;;;;;;;55.50;45.75;;;;;6.09;87.10;103256.38;4984118;28;47074;-81
2022/01/18 09:35:12;;;;;;;;;36.75;34.75;;;;;6.03;86.93;103248.75;5002021;28;45339;-80
2022/01/18 09:37:37;;;;;;;;;49.00;39.50;;;;;6.00;87.24;103252.41;4984145;28;45291;-81
2022/01/18 09:40:05;;;;;;;;;47.25;38.75;;;;;6.05;87.44;103257.50;5001695;28;45315;-81
2022/01/18 09:42:38;;;;;;;;;43.75;37.25;;;;;6.07;87.56;103245.03;5001788;28;45275;-80
2022/01/18 09:45:08;;;;;;;;;41.00;36.25;;;;;6.11;86.97;103259.78;5000607;28;45471;-81
2022/01/18 09:47:34;;;;;;;;;38.25;34.75;;;;;6.13;86.99;103249.13;5000347;28;45483;-80
2022/01/18 09:50:00;;;;;;;;;52.75;41.50;;;;;6.08;87.38;103252.03;5001758;28;45232;-80
2022/01/18 09:52:26;;;;;;;;;57.75;46.25;;;;;6.09;87.29;103250.25;5001737;28;45225;-80
2022/01/18 09:54:51;;;;;;;;;50.75;40.25;;;;;5.99;87.09;103240.13;4983620;28;47379;-80
2022/01/18 09:57:17;;;;;;;;;52.00;41.50;;;;;6.08;87.34;103246.75;5001624;28;45277;-80
2022/01/18 09:59:42;;;;;;;;;45.00;36.75;;;;;6.03;87.52;103238.19;4984064;28;45378;-81
2022/01/18 10:02:10;;;;;;;;;44.50;36.50;;;;;6.20;87.56;103253.16;5001653;28;45241;-81
2022/01/18 10:04:44;;;;;;;;;61.25;47.75;;;;;6.30;87.59;103253.50;5001584;28;45342;-81
2022/01/18 10:07:10;;;;;;;;;49.00;40.50;;;;;6.35;87.51;103246.19;5001420;28;45305;-80
2022/01/18 10:09:36;;;;;;;;;48.00;39.75;;;;;6.39;87.58;103226.59;5001228;28;45286;-80
2022/01/18 10:12:14;;;;;;;;;61.00;50.50;;;;;6.60;87.49;103258.03;5001404;28;45266;-81
2022/01/18 10:15:01;;;;;;;;;74.00;57.50;;;;;6.57;86.79;103248.50;5001321;28;45227;-80
2022/01/18 10:17:38;;;;;;;;;64.50;50.00;;;;;6.56;86.64;103238.00;5000532;28;45287;-81
2022/01/18 10:20:14;;;;;;;;;52.50;42.00;;;;;6.64;87.47;103245.50;4983485;28;45419;-80
2022/01/18 10:22:41;;;;;;;;;41.50;36.00;;;;;6.56;87.23;103230.09;5001196;28;45412;-81
2022/01/18 10:25:18;;;;;;;;;42.00;35.25;;;;;6.64;87.35;103245.50;5000810;28;46146;-80
2022/01/18 10:27:47;;;;;;;;;38.75;32.50;;;;;6.59;87.56;103232.56;5001085;28;45246;-81
2022/01/18 10:30:20;;;;;;;;;34.25;32.75;;;;;6.56;87.46;103223.00;5001015;28;45264;-81
2022/01/18 10:33:12;;;;;;;;;33.75;31.50;;;;;6.65;87.39;103228.72;5001210;28;45152;-81
2022/01/18 10:36:03;;;;;;;;;36.00;31.00;;;;;6.67;87.39;103225.03;4983058;28;46931;-81
2022/01/18 10:38:29;;;;;;;;;35.25;32.25;;;;;6.67;87.12;103214.47;5001027;28;45354;-81
2022/01/18 10:40:55;;;;;;;;;34.00;28.75;;;;;6.64;87.59;103200.56;5000736;28;45374;-81
2022/01/18 10:43:32;;;;;;;;;38.00;31.25;;;;;6.69;87.51;103202.03;5000909;28;45253;-81
2022/01/18 10:46:14;;;;;;;;;35.00;31.00;;;;;6.58;86.96;103172.69;5000818;28;45985;-81
2022/01/18 10:48:49;;;;;;;;;32.00;28.33;;;;;6.72;87.16;103186.91;5000711;28;45293;-81
2022/01/18 10:51:28;;;;;;;;;26.67;26.33;;;;;6.70;87.00;103173.78;5000864;28;45329;-81
2022/01/18 10:53:59;;;;;;;;;40.00;28.50;;;;;6.80;87.02;103182.88;5000491;28;45342;-81
2022/01/18 10:56:24;;;;;;;;;27.00;25.33;;;;;6.88;86.71;103187.72;4999927;28;46176;-80
2022/01/18 10:58:57;;;;;;;;;139.67;120.33;;;;;6.82;86.95;103170.44;4983041;28;46022;-81
2022/01/18 11:01:23;;;;;;;;;55.00;45.25;;;;;6.82;86.98;103164.28;5000867;28;45240;-80
2022/01/18 11:04:11;;;;;;;;;32.00;27.50;;;;;6.95;86.23;103173.22;4982754;28;46190;-81
2022/01/18 11:06:38;;;;;;;;;29.33;27.33;;;;;6.88;86.52;103149.88;5015457;28;48511;-81
2022/01/18 11:09:13;;;;;;;;;38.50;35.75;;;;;7.02;86.66;103171.06;5000106;28;45387;-81
2022/01/18 11:11:43;;;;;;;;;67.25;53.25;;;;;7.06;86.84;103166.44;4982802;28;45235;-81
2022/01/18 11:14:09;;;;;;;;;159.33;134.67;;;;;6.99;86.03;103142.16;4982539;28;47404;-79
2022/01/18 11:16:40;;;;;;;;;75.00;58.50;;;;;7.05;86.26;103151.53;5000266;28;45378;-82
2022/01/18 11:19:08;;;;;;;;;82.50;66.00;;;;;7.13;86.55;103156.34;5000064;28;45189;-81
2022/01/18 11:21:34;;;;;;;;;70.25;55.00;;;;;7.09;86.63;103129.22;5000392;28;45373;-81
2022/01/18 11:24:00;;;;;;;;;87.00;77.25;;;;;7.00;86.62;103103.34;5000022;28;45333;-81
2022/01/18 11:26:28;;;;;;;;;59.50;47.50;;;;;7.18;86.31;103122.53;5000257;28;45374;-81
2022/01/18 11:28:56;;;;;;;;;36.75;33.25;;;;;7.25;86.28;103110.66;4982244;28;45261;-81
2022/01/18 11:31:23;;;;;;;;;69.75;52.25;;;;;7.22;85.99;103099.41;4982631;28;45275;-81
2022/01/18 11:33:54;;;;;;;;;59.75;46.25;;;;;7.38;86.30;103112.53;5000099;28;45350;-81
2022/01/18 11:36:24;;;;;;;;;75.75;55.50;;;;;7.38;86.31;103112.53;5000006;28;45242;-81
2022/01/18 11:38:56;;;;;;;;;44.75;37.00;;;;;7.46;85.96;103105.00;4999829;28;45300;-81
2022/01/18 11:41:31;;;;;;;;;27.67;24.67;;;;;7.45;85.88;103097.97;5000238;28;45238;-81
2022/01/18 11:43:59;;;;;;;;;61.50;49.00;;;;;7.47;85.68;103100.53;4999781;28;45583;-80
2022/01/18 11:46:30;;;;;;;;;41.00;32.75;;;;;7.52;85.39;103098.47;4999842;28;47177;-81
2022/01/18 11:49:05;;;;;;;;;51.00;41.00;;;;;7.55;85.63;103096.44;4999880;28;45288;-81
2022/01/18 11:51:48;;;;;;;;;98.25;82.00;;;;;7.52;85.68;103077.28;5000011;28;45289;-81
2022/01/18 11:54:56;;;;;;;;;53.25;41.50;;;;;7.63;86.15;103087.19;4998239;28;46067;-81
2022/01/18 11:57:22;;;;;;;;;47.50;38.00;;;;;7.68;86.06;103072.72;4981925;28;47590;-81
2022/01/18 11:59:49;;;;;;;;;41.25;34.50;;;;;7.72;85.87;103073.34;4999711;28;45368;-81
2022/01/18 12:02:37;;;;;;;;;56.75;45.75;;;;;7.73;85.65;103060.97;4982159;28;45421;-81
2022/01/18 12:05:13;;;;;;;;;48.25;39.25;;;;;7.79;85.42;103068.53;4981789;28;46298;-80
2022/01/18 12:07:44;;;;;;;;;58.00;47.00;;;;;7.84;84.83;103058.50;4980669;28;47045;-80
2022/01/18 12:10:31;;;;;;;;;35.33;27.00;;;;;7.88;84.39;103064.44;4999346;28;45299;-80
2022/01/18 12:12:57;;;;;;;;;46.50;37.50;;;;;7.90;84.57;103058.09;4999934;28;45371;-80
2022/01/18 12:15:23;;;;;;;;;24.00;22.33;;;;;7.96;83.95;103051.53;4999485;28;45339;-80
2022/01/18 12:17:53;;;;;;;;;22.00;21.00;;;;;7.98;83.55;103046.16;4999307;28;46277;-80
2022/01/18 12:20:34;;;;;;;;;36.33;32.00;;;;;8.05;83.55;103042.19;4981818;28;45438;-81
2022/01/18 12:23:11;;;;;;;;;71.75;55.50;;;;;8.11;82.46;103049.69;4999643;28;45219;-81
2022/01/18 12:25:56;;;;;;;;;34.33;31.67;;;;;8.17;82.65;103048.47;4999198;28;45240;-81
2022/01/18 12:31:52;;;;;;;;;37.00;30.00;;;;;8.23;82.48;103033.97;4970937;28;45389;-81